sensor_id;sensor_type;location;lat;lon;timestamp;P1;durP1;ratioP1;P2;durP2;ratioP2
70303;SDS011;57712;48.752;11.348;2023-07-08T00:00:53;8.93;;;4.45;;
70303;SDS011;57712;48.752;11.348;2023-07-08T00:03:20;10.30;;;4.43;;
70303;SDS011;57712;48.752;11.348;2023-07-08T00:05:47;10.48;;;3.70;;
70303;SDS011;57712;48.752;11.348;2023-07-08T00:08:19;7.90;;;4.35;;
70303;SDS011;57712;48.752;11.348;2023-07-08T00:10:46;10.80;;;4.33;;
70303;SDS011;57712;48.752;11.348;2023-07-08T00:13:14;8.13;;;4.25;;
70303;SDS011;57712;48.752;11.348;2023-07-08T00:15:40;7.78;;;3.75;;
70303;SDS011;57712;48.752;11.348;2023-07-08T00:18:11;7.78;;;4.10;;
70303;SDS011;57712;48.752;11.348;2023-07-08T00:20:40;10.75;;;4.50;;
70303;SDS011;57712;48.752;11.348;2023-07-08T00:23:11;11.73;;;4.13;;
70303;SDS011;57712;48.752;11.348;2023-07-08T00:25:38;8.85;;;4.50;;
70303;SDS011;57712;48.752;11.348;2023-07-08T00:28:08;7.93;;;3.88;;
70303;SDS011;57712;48.752;11.348;2023-07-08T00:30:40;8.63;;;3.92;;
70303;SDS011;57712;48.752;11.348;2023-07-08T00:33:07;8.13;;;4.30;;
70303;SDS011;57712;48.752;11.348;2023-07-08T00:35:38;8.73;;;4.20;;
70303;SDS011;57712;48.752;11.348;2023-07-08T00:38:13;11.25;;;4.20;;
70303;SDS011;57712;48.752;11.348;2023-07-08T00:43:37;9.50;;;4.03;;
70303;SDS011;57712;48.752;11.348;2023-07-08T00:51:55;7.93;;;3.90;;
70303;SDS011;57712;48.752;11.348;2023-07-08T00:54:21;8.02;;;4.28;;
70303;SDS011;57712;48.752;11.348;2023-07-08T00:56:52;8.38;;;3.85;;
70303;SDS011;57712;48.752;11.348;2023-07-08T01:01:56;7.90;;;4.60;;
70303;SDS011;57712;48.752;11.348;2023-07-08T01:04:29;8.18;;;4.32;;
70303;SDS011;57712;48.752;11.348;2023-07-08T01:07:03;9.25;;;4.07;;
70303;SDS011;57712;48.752;11.348;2023-07-08T01:09:30;8.13;;;4.53;;
70303;SDS011;57712;48.752;11.348;2023-07-08T01:12:04;7.45;;;4.00;;
70303;SDS011;57712;48.752;11.348;2023-07-08T01:14:34;8.43;;;3.97;;
70303;SDS011;57712;48.752;11.348;2023-07-08T01:17:04;9.07;;;4.53;;
70303;SDS011;57712;48.752;11.348;2023-07-08T01:19:30;9.02;;;4.03;;
70303;SDS011;57712;48.752;11.348;2023-07-08T01:22:04;8.60;;;3.88;;
70303;SDS011;57712;48.752;11.348;2023-07-08T01:24:33;8.73;;;3.88;;
70303;SDS011;57712;48.752;11.348;2023-07-08T01:27:02;8.37;;;4.40;;
70303;SDS011;57712;48.752;11.348;2023-07-08T01:29:31;8.02;;;4.40;;
70303;SDS011;57712;48.752;11.348;2023-07-08T01:31:58;8.55;;;4.57;;
70303;SDS011;57712;48.752;11.348;2023-07-08T01:34:29;8.82;;;4.60;;
70303;SDS011;57712;48.752;11.348;2023-07-08T01:36:57;9.05;;;4.13;;
70303;SDS011;57712;48.752;11.348;2023-07-08T01:39:26;10.17;;;4.23;;
70303;SDS011;57712;48.752;11.348;2023-07-08T01:41:55;9.23;;;3.97;;
70303;SDS011;57712;48.752;11.348;2023-07-08T01:44:30;7.63;;;4.43;;
70303;SDS011;57712;48.752;11.348;2023-07-08T01:47:00;8.80;;;3.80;;
70303;SDS011;57712;48.752;11.348;2023-07-08T01:49:31;8.18;;;3.78;;
70303;SDS011;57712;48.752;11.348;2023-07-08T01:52:00;8.10;;;3.73;;
70303;SDS011;57712;48.752;11.348;2023-07-08T01:54:27;8.35;;;3.90;;
70303;SDS011;57712;48.752;11.348;2023-07-08T01:56:57;9.90;;;4.57;;
70303;SDS011;57712;48.752;11.348;2023-07-08T01:59:24;7.93;;;3.92;;
70303;SDS011;57712;48.752;11.348;2023-07-08T02:01:51;7.55;;;4.13;;
70303;SDS011;57712;48.752;11.348;2023-07-08T02:04:22;8.03;;;4.43;;
70303;SDS011;57712;48.752;11.348;2023-07-08T02:06:54;8.30;;;4.15;;
70303;SDS011;57712;48.752;11.348;2023-07-08T02:09:22;9.32;;;4.30;;
70303;SDS011;57712;48.752;11.348;2023-07-08T02:11:52;8.13;;;3.63;;
70303;SDS011;57712;48.752;11.348;2023-07-08T02:14:19;7.85;;;4.30;;
70303;SDS011;57712;48.752;11.348;2023-07-08T02:16:47;8.83;;;4.27;;
70303;SDS011;57712;48.752;11.348;2023-07-08T02:19:13;10.05;;;4.32;;
70303;SDS011;57712;48.752;11.348;2023-07-08T02:21:40;8.38;;;3.88;;
70303;SDS011;57712;48.752;11.348;2023-07-08T02:24:07;8.27;;;4.05;;
70303;SDS011;57712;48.752;11.348;2023-07-08T02:26:34;7.50;;;3.97;;
70303;SDS011;57712;48.752;11.348;2023-07-08T02:29:00;8.00;;;4.00;;
70303;SDS011;57712;48.752;11.348;2023-07-08T02:31:28;9.80;;;4.25;;
70303;SDS011;57712;48.752;11.348;2023-07-08T02:33:54;8.90;;;4.60;;
70303;SDS011;57712;48.752;11.348;2023-07-08T02:36:21;7.93;;;3.88;;
70303;SDS011;57712;48.752;11.348;2023-07-08T02:38:48;7.25;;;3.88;;
70303;SDS011;57712;48.752;11.348;2023-07-08T02:41:14;8.70;;;4.13;;
70303;SDS011;57712;48.752;11.348;2023-07-08T02:43:41;8.18;;;4.13;;
70303;SDS011;57712;48.752;11.348;2023-07-08T02:46:08;7.28;;;3.80;;
70303;SDS011;57712;48.752;11.348;2023-07-08T02:48:34;10.35;;;3.60;;
70303;SDS011;57712;48.752;11.348;2023-07-08T02:51:02;7.60;;;3.80;;
70303;SDS011;57712;48.752;11.348;2023-07-08T02:53:30;7.80;;;3.87;;
70303;SDS011;57712;48.752;11.348;2023-07-08T02:55:56;7.90;;;4.40;;
70303;SDS011;57712;48.752;11.348;2023-07-08T02:58:23;8.50;;;4.10;;
70303;SDS011;57712;48.752;11.348;2023-07-08T03:00:51;7.72;;;3.95;;
70303;SDS011;57712;48.752;11.348;2023-07-08T03:03:22;9.10;;;4.38;;
70303;SDS011;57712;48.752;11.348;2023-07-08T03:05:59;7.73;;;3.77;;
70303;SDS011;57712;48.752;11.348;2023-07-08T03:08:29;8.65;;;4.22;;
70303;SDS011;57712;48.752;11.348;2023-07-08T03:10:57;7.38;;;3.53;;
70303;SDS011;57712;48.752;11.348;2023-07-08T03:13:25;7.78;;;4.22;;
70303;SDS011;57712;48.752;11.348;2023-07-08T03:15:53;7.30;;;3.67;;
70303;SDS011;57712;48.752;11.348;2023-07-08T03:18:21;8.20;;;4.03;;
70303;SDS011;57712;48.752;11.348;2023-07-08T03:20:50;8.55;;;4.10;;
70303;SDS011;57712;48.752;11.348;2023-07-08T03:23:17;8.23;;;4.10;;
70303;SDS011;57712;48.752;11.348;2023-07-08T03:25:43;7.38;;;4.07;;
70303;SDS011;57712;48.752;11.348;2023-07-08T03:28:10;7.43;;;3.80;;
70303;SDS011;57712;48.752;11.348;2023-07-08T03:30:41;7.20;;;3.53;;
70303;SDS011;57712;48.752;11.348;2023-07-08T03:33:09;8.90;;;4.13;;
70303;SDS011;57712;48.752;11.348;2023-07-08T03:35:37;9.40;;;4.05;;
70303;SDS011;57712;48.752;11.348;2023-07-08T03:38:05;7.13;;;3.88;;
70303;SDS011;57712;48.752;11.348;2023-07-08T03:40:31;8.70;;;4.05;;
70303;SDS011;57712;48.752;11.348;2023-07-08T03:42:58;8.97;;;3.83;;
70303;SDS011;57712;48.752;11.348;2023-07-08T03:45:25;8.82;;;3.90;;
70303;SDS011;57712;48.752;11.348;2023-07-08T03:47:53;9.25;;;4.47;;
70303;SDS011;57712;48.752;11.348;2023-07-08T03:50:21;7.43;;;3.83;;
70303;SDS011;57712;48.752;11.348;2023-07-08T03:52:50;7.35;;;3.58;;
70303;SDS011;57712;48.752;11.348;2023-07-08T03:55:20;7.03;;;3.50;;
70303;SDS011;57712;48.752;11.348;2023-07-08T03:57:48;6.95;;;3.80;;
70303;SDS011;57712;48.752;11.348;2023-07-08T04:00:15;7.65;;;4.05;;
70303;SDS011;57712;48.752;11.348;2023-07-08T04:02:42;8.25;;;4.60;;
70303;SDS011;57712;48.752;11.348;2023-07-08T04:05:14;8.05;;;4.00;;
70303;SDS011;57712;48.752;11.348;2023-07-08T04:07:45;7.47;;;4.17;;
70303;SDS011;57712;48.752;11.348;2023-07-08T04:10:13;7.90;;;3.80;;
70303;SDS011;57712;48.752;11.348;2023-07-08T04:12:39;8.63;;;4.00;;
70303;SDS011;57712;48.752;11.348;2023-07-08T04:15:07;7.35;;;3.50;;
70303;SDS011;57712;48.752;11.348;2023-07-08T04:17:41;9.60;;;3.78;;
70303;SDS011;57712;48.752;11.348;2023-07-08T04:20:14;8.13;;;3.77;;
70303;SDS011;57712;48.752;11.348;2023-07-08T04:22:45;7.65;;;3.90;;
70303;SDS011;57712;48.752;11.348;2023-07-08T04:25:12;9.90;;;3.83;;
70303;SDS011;57712;48.752;11.348;2023-07-08T04:27:40;6.95;;;3.60;;
70303;SDS011;57712;48.752;11.348;2023-07-08T04:30:09;7.93;;;4.35;;
70303;SDS011;57712;48.752;11.348;2023-07-08T04:32:46;8.07;;;4.20;;
70303;SDS011;57712;48.752;11.348;2023-07-08T04:35:13;7.28;;;3.22;;
70303;SDS011;57712;48.752;11.348;2023-07-08T04:37:39;8.13;;;3.97;;
70303;SDS011;57712;48.752;11.348;2023-07-08T04:40:10;8.82;;;3.97;;
70303;SDS011;57712;48.752;11.348;2023-07-08T04:42:42;7.82;;;3.90;;
70303;SDS011;57712;48.752;11.348;2023-07-08T04:45:09;8.07;;;4.57;;
70303;SDS011;57712;48.752;11.348;2023-07-08T04:47:35;8.95;;;4.35;;
70303;SDS011;57712;48.752;11.348;2023-07-08T04:50:02;8.73;;;4.50;;
70303;SDS011;57712;48.752;11.348;2023-07-08T04:52:29;8.68;;;4.88;;
70303;SDS011;57712;48.752;11.348;2023-07-08T04:54:55;9.23;;;4.70;;
70303;SDS011;57712;48.752;11.348;2023-07-08T04:57:22;8.47;;;4.50;;
70303;SDS011;57712;48.752;11.348;2023-07-08T04:59:49;7.82;;;4.22;;
70303;SDS011;57712;48.752;11.348;2023-07-08T05:02:15;7.82;;;4.30;;
70303;SDS011;57712;48.752;11.348;2023-07-08T05:04:42;8.25;;;4.68;;
70303;SDS011;57712;48.752;11.348;2023-07-08T05:07:08;8.10;;;3.97;;
70303;SDS011;57712;48.752;11.348;2023-07-08T05:09:35;10.43;;;5.13;;
70303;SDS011;57712;48.752;11.348;2023-07-08T05:12:02;7.70;;;4.32;;
70303;SDS011;57712;48.752;11.348;2023-07-08T05:14:29;7.40;;;4.60;;
70303;SDS011;57712;48.752;11.348;2023-07-08T05:16:56;10.93;;;4.20;;
70303;SDS011;57712;48.752;11.348;2023-07-08T05:19:23;9.55;;;4.80;;
70303;SDS011;57712;48.752;11.348;2023-07-08T05:21:50;6.93;;;4.00;;
70303;SDS011;57712;48.752;11.348;2023-07-08T05:24:17;7.85;;;4.13;;
70303;SDS011;57712;48.752;11.348;2023-07-08T05:26:44;8.90;;;4.78;;
70303;SDS011;57712;48.752;11.348;2023-07-08T05:29:10;7.78;;;4.40;;
70303;SDS011;57712;48.752;11.348;2023-07-08T05:31:37;11.02;;;6.10;;
70303;SDS011;57712;48.752;11.348;2023-07-08T05:34:13;9.57;;;6.63;;
70303;SDS011;57712;48.752;11.348;2023-07-08T05:36:41;10.52;;;6.32;;
70303;SDS011;57712;48.752;11.348;2023-07-08T05:39:08;8.52;;;5.47;;
70303;SDS011;57712;48.752;11.348;2023-07-08T05:41:34;8.73;;;5.07;;
70303;SDS011;57712;48.752;11.348;2023-07-08T05:44:01;10.27;;;5.45;;
70303;SDS011;57712;48.752;11.348;2023-07-08T05:46:28;8.33;;;4.93;;
70303;SDS011;57712;48.752;11.348;2023-07-08T05:48:55;13.60;;;7.18;;
70303;SDS011;57712;48.752;11.348;2023-07-08T05:51:25;11.20;;;6.20;;
70303;SDS011;57712;48.752;11.348;2023-07-08T05:53:52;9.75;;;5.40;;
70303;SDS011;57712;48.752;11.348;2023-07-08T05:56:18;8.75;;;5.60;;
70303;SDS011;57712;48.752;11.348;2023-07-08T05:58:45;9.27;;;5.27;;
70303;SDS011;57712;48.752;11.348;2023-07-08T06:01:12;10.05;;;6.60;;
70303;SDS011;57712;48.752;11.348;2023-07-08T06:03:38;8.85;;;5.53;;
70303;SDS011;57712;48.752;11.348;2023-07-08T06:06:05;10.52;;;4.90;;
70303;SDS011;57712;48.752;11.348;2023-07-08T06:08:34;7.68;;;4.78;;
70303;SDS011;57712;48.752;11.348;2023-07-08T06:11:01;8.70;;;5.10;;
70303;SDS011;57712;48.752;11.348;2023-07-08T06:13:28;10.15;;;4.82;;
70303;SDS011;57712;48.752;11.348;2023-07-08T06:15:54;8.30;;;4.80;;
70303;SDS011;57712;48.752;11.348;2023-07-08T06:18:21;8.07;;;4.97;;
70303;SDS011;57712;48.752;11.348;2023-07-08T06:20:54;9.52;;;4.82;;
70303;SDS011;57712;48.752;11.348;2023-07-08T06:23:23;7.03;;;4.07;;
70303;SDS011;57712;48.752;11.348;2023-07-08T06:25:51;7.63;;;4.18;;
70303;SDS011;57712;48.752;11.348;2023-07-08T06:28:18;7.78;;;4.75;;
70303;SDS011;57712;48.752;11.348;2023-07-08T06:30:46;8.40;;;4.93;;
70303;SDS011;57712;48.752;11.348;2023-07-08T06:33:13;8.60;;;5.00;;
70303;SDS011;57712;48.752;11.348;2023-07-08T06:35:40;8.47;;;4.97;;
70303;SDS011;57712;48.752;11.348;2023-07-08T06:38:07;8.10;;;4.90;;
70303;SDS011;57712;48.752;11.348;2023-07-08T06:40:34;8.60;;;4.35;;
70303;SDS011;57712;48.752;11.348;2023-07-08T06:43:02;8.27;;;4.50;;
70303;SDS011;57712;48.752;11.348;2023-07-08T06:45:29;7.68;;;4.80;;
70303;SDS011;57712;48.752;11.348;2023-07-08T06:47:55;8.97;;;5.27;;
70303;SDS011;57712;48.752;11.348;2023-07-08T06:50:22;7.93;;;4.40;;
70303;SDS011;57712;48.752;11.348;2023-07-08T06:52:49;7.43;;;4.20;;
70303;SDS011;57712;48.752;11.348;2023-07-08T06:55:16;8.00;;;4.70;;
70303;SDS011;57712;48.752;11.348;2023-07-08T06:57:43;9.05;;;4.90;;
70303;SDS011;57712;48.752;11.348;2023-07-08T07:00:10;8.23;;;4.40;;
70303;SDS011;57712;48.752;11.348;2023-07-08T07:02:37;8.25;;;4.90;;
70303;SDS011;57712;48.752;11.348;2023-07-08T07:05:04;7.97;;;4.82;;
70303;SDS011;57712;48.752;11.348;2023-07-08T07:07:32;9.88;;;4.45;;
70303;SDS011;57712;48.752;11.348;2023-07-08T07:10:00;9.27;;;5.15;;
70303;SDS011;57712;48.752;11.348;2023-07-08T07:12:27;9.27;;;4.70;;
70303;SDS011;57712;48.752;11.348;2023-07-08T07:14:54;9.68;;;4.43;;
70303;SDS011;57712;48.752;11.348;2023-07-08T07:17:21;8.05;;;4.88;;
70303;SDS011;57712;48.752;11.348;2023-07-08T07:19:49;9.32;;;5.07;;
70303;SDS011;57712;48.752;11.348;2023-07-08T07:22:16;8.57;;;4.35;;
70303;SDS011;57712;48.752;11.348;2023-07-08T07:24:42;10.50;;;4.93;;
70303;SDS011;57712;48.752;11.348;2023-07-08T07:27:09;8.15;;;4.53;;
70303;SDS011;57712;48.752;11.348;2023-07-08T07:29:47;9.13;;;4.70;;
70303;SDS011;57712;48.752;11.348;2023-07-08T07:32:16;7.85;;;4.55;;
70303;SDS011;57712;48.752;11.348;2023-07-08T07:34:47;8.80;;;5.05;;
70303;SDS011;57712;48.752;11.348;2023-07-08T07:37:15;8.20;;;4.90;;
70303;SDS011;57712;48.752;11.348;2023-07-08T07:39:44;8.85;;;4.28;;
70303;SDS011;57712;48.752;11.348;2023-07-08T07:42:12;8.77;;;4.88;;
70303;SDS011;57712;48.752;11.348;2023-07-08T07:44:42;8.88;;;4.95;;
70303;SDS011;57712;48.752;11.348;2023-07-08T07:47:09;7.03;;;4.53;;
70303;SDS011;57712;48.752;11.348;2023-07-08T07:49:36;8.93;;;4.93;;
70303;SDS011;57712;48.752;11.348;2023-07-08T07:52:03;7.95;;;4.90;;
70303;SDS011;57712;48.752;11.348;2023-07-08T07:54:31;8.43;;;4.80;;
70303;SDS011;57712;48.752;11.348;2023-07-08T07:56:57;9.32;;;4.93;;
70303;SDS011;57712;48.752;11.348;2023-07-08T07:59:24;7.93;;;5.03;;
70303;SDS011;57712;48.752;11.348;2023-07-08T08:01:51;7.70;;;5.00;;
70303;SDS011;57712;48.752;11.348;2023-07-08T08:04:21;8.40;;;5.28;;
70303;SDS011;57712;48.752;11.348;2023-07-08T08:06:48;7.68;;;4.78;;
70303;SDS011;57712;48.752;11.348;2023-07-08T08:09:15;8.65;;;5.13;;
70303;SDS011;57712;48.752;11.348;2023-07-08T08:11:41;8.70;;;4.93;;
70303;SDS011;57712;48.752;11.348;2023-07-08T08:14:08;7.50;;;4.90;;
70303;SDS011;57712;48.752;11.348;2023-07-08T08:16:35;8.80;;;4.93;;
70303;SDS011;57712;48.752;11.348;2023-07-08T08:19:01;8.52;;;4.93;;
70303;SDS011;57712;48.752;11.348;2023-07-08T08:21:30;11.93;;;5.40;;
70303;SDS011;57712;48.752;11.348;2023-07-08T08:23:57;9.48;;;5.40;;
70303;SDS011;57712;48.752;11.348;2023-07-08T08:26:26;9.60;;;5.40;;
70303;SDS011;57712;48.752;11.348;2023-07-08T08:28:53;9.40;;;5.65;;
70303;SDS011;57712;48.752;11.348;2023-07-08T08:31:20;7.82;;;4.90;;
70303;SDS011;57712;48.752;11.348;2023-07-08T08:33:48;8.75;;;5.22;;
70303;SDS011;57712;48.752;11.348;2023-07-08T08:36:14;9.75;;;5.88;;
70303;SDS011;57712;48.752;11.348;2023-07-08T08:38:41;8.07;;;5.43;;
70303;SDS011;57712;48.752;11.348;2023-07-08T08:41:14;8.13;;;4.82;;
70303;SDS011;57712;48.752;11.348;2023-07-08T08:43:43;9.15;;;5.25;;
70303;SDS011;57712;48.752;11.348;2023-07-08T08:46:23;8.45;;;5.60;;
70303;SDS011;57712;48.752;11.348;2023-07-08T08:51:31;9.07;;;4.90;;
70303;SDS011;57712;48.752;11.348;2023-07-08T08:53:59;9.82;;;5.45;;
70303;SDS011;57712;48.752;11.348;2023-07-08T08:56:48;8.45;;;4.90;;
70303;SDS011;57712;48.752;11.348;2023-07-08T09:05:03;14.90;;;6.67;;
70303;SDS011;57712;48.752;11.348;2023-07-08T09:07:36;27.95;;;10.98;;
70303;SDS011;57712;48.752;11.348;2023-07-08T09:10:33;10.90;;;5.82;;
70303;SDS011;57712;48.752;11.348;2023-07-08T09:13:02;10.40;;;6.03;;
70303;SDS011;57712;48.752;11.348;2023-07-08T09:15:31;8.15;;;5.25;;
70303;SDS011;57712;48.752;11.348;2023-07-08T09:18:01;8.10;;;5.03;;
70303;SDS011;57712;48.752;11.348;2023-07-08T09:20:39;8.20;;;5.32;;
70303;SDS011;57712;48.752;11.348;2023-07-08T09:26:04;9.38;;;5.78;;
70303;SDS011;57712;48.752;11.348;2023-07-08T09:28:40;9.15;;;5.63;;
70303;SDS011;57712;48.752;11.348;2023-07-08T09:34:07;10.35;;;5.07;;
70303;SDS011;57712;48.752;11.348;2023-07-08T09:36:46;9.43;;;5.78;;
70303;SDS011;57712;48.752;11.348;2023-07-08T09:39:15;8.93;;;5.80;;
70303;SDS011;57712;48.752;11.348;2023-07-08T09:41:45;9.02;;;5.45;;
70303;SDS011;57712;48.752;11.348;2023-07-08T09:44:26;9.50;;;6.20;;
70303;SDS011;57712;48.752;11.348;2023-07-08T09:46:59;8.68;;;5.63;;
70303;SDS011;57712;48.752;11.348;2023-07-08T09:51:55;7.88;;;5.30;;
70303;SDS011;57712;48.752;11.348;2023-07-08T09:54:23;8.73;;;5.80;;
70303;SDS011;57712;48.752;11.348;2023-07-08T09:56:55;9.13;;;5.20;;
70303;SDS011;57712;48.752;11.348;2023-07-08T09:59:27;11.38;;;6.18;;
70303;SDS011;57712;48.752;11.348;2023-07-08T10:02:01;9.00;;;5.75;;
70303;SDS011;57712;48.752;11.348;2023-07-08T10:04:43;11.20;;;5.88;;
70303;SDS011;57712;48.752;11.348;2023-07-08T10:07:10;9.05;;;6.82;;
70303;SDS011;57712;48.752;11.348;2023-07-08T10:09:43;8.73;;;5.70;;
70303;SDS011;57712;48.752;11.348;2023-07-08T10:12:11;8.70;;;5.53;;
70303;SDS011;57712;48.752;11.348;2023-07-08T10:14:41;10.27;;;5.85;;
70303;SDS011;57712;48.752;11.348;2023-07-08T10:17:15;9.77;;;5.53;;
70303;SDS011;57712;48.752;11.348;2023-07-08T10:19:43;8.93;;;6.28;;
70303;SDS011;57712;48.752;11.348;2023-07-08T10:22:24;7.60;;;5.27;;
70303;SDS011;57712;48.752;11.348;2023-07-08T10:25:22;9.32;;;5.95;;
70303;SDS011;57712;48.752;11.348;2023-07-08T10:33:48;9.55;;;6.00;;
70303;SDS011;57712;48.752;11.348;2023-07-08T10:39:48;8.15;;;5.40;;
70303;SDS011;57712;48.752;11.348;2023-07-08T10:45:31;8.63;;;5.22;;
70303;SDS011;57712;48.752;11.348;2023-07-08T10:54:06;8.35;;;6.28;;
70303;SDS011;57712;48.752;11.348;2023-07-08T10:56:59;10.02;;;6.00;;
70303;SDS011;57712;48.752;11.348;2023-07-08T10:59:53;9.32;;;5.43;;
70303;SDS011;57712;48.752;11.348;2023-07-08T11:05:39;8.93;;;5.77;;
70303;SDS011;57712;48.752;11.348;2023-07-08T11:08:12;8.70;;;5.65;;
70303;SDS011;57712;48.752;11.348;2023-07-08T11:10:49;9.65;;;5.85;;
70303;SDS011;57712;48.752;11.348;2023-07-08T11:13:42;9.90;;;5.57;;
70303;SDS011;57712;48.752;11.348;2023-07-08T11:16:24;8.75;;;6.18;;
70303;SDS011;57712;48.752;11.348;2023-07-08T11:19:00;9.13;;;5.97;;
70303;SDS011;57712;48.752;11.348;2023-07-08T11:21:34;8.80;;;6.22;;
70303;SDS011;57712;48.752;11.348;2023-07-08T11:26:50;8.63;;;5.95;;
70303;SDS011;57712;48.752;11.348;2023-07-08T11:29:25;9.40;;;6.25;;
70303;SDS011;57712;48.752;11.348;2023-07-08T11:31:58;9.90;;;5.40;;
70303;SDS011;57712;48.752;11.348;2023-07-08T11:34:25;8.82;;;5.28;;
70303;SDS011;57712;48.752;11.348;2023-07-08T11:36:54;7.65;;;5.30;;
70303;SDS011;57712;48.752;11.348;2023-07-08T11:39:28;9.10;;;5.95;;
70303;SDS011;57712;48.752;11.348;2023-07-08T11:42:11;8.55;;;5.65;;
70303;SDS011;57712;48.752;11.348;2023-07-08T11:44:43;8.77;;;5.70;;
70303;SDS011;57712;48.752;11.348;2023-07-08T11:47:17;8.70;;;5.15;;
70303;SDS011;57712;48.752;11.348;2023-07-08T11:49:48;8.80;;;5.38;;
70303;SDS011;57712;48.752;11.348;2023-07-08T11:52:19;9.15;;;5.53;;
70303;SDS011;57712;48.752;11.348;2023-07-08T11:54:48;8.40;;;5.85;;
70303;SDS011;57712;48.752;11.348;2023-07-08T11:57:29;9.03;;;6.10;;
70303;SDS011;57712;48.752;11.348;2023-07-08T12:04:16;8.30;;;5.53;;
70303;SDS011;57712;48.752;11.348;2023-07-08T12:10:37;11.70;;;6.25;;
70303;SDS011;57712;48.752;11.348;2023-07-08T12:13:15;9.13;;;6.50;;
70303;SDS011;57712;48.752;11.348;2023-07-08T12:16:11;9.10;;;6.43;;
70303;SDS011;57712;48.752;11.348;2023-07-08T12:19:04;9.10;;;6.25;;
70303;SDS011;57712;48.752;11.348;2023-07-08T12:22:24;9.95;;;5.68;;
70303;SDS011;57712;48.752;11.348;2023-07-08T12:25:14;8.70;;;5.50;;
70303;SDS011;57712;48.752;11.348;2023-07-08T12:28:05;8.27;;;5.93;;
70303;SDS011;57712;48.752;11.348;2023-07-08T12:31:37;7.55;;;5.55;;
70303;SDS011;57712;48.752;11.348;2023-07-08T12:34:31;9.45;;;5.72;;
70303;SDS011;57712;48.752;11.348;2023-07-08T12:36:58;8.18;;;5.25;;
70303;SDS011;57712;48.752;11.348;2023-07-08T12:39:25;8.27;;;5.97;;
70303;SDS011;57712;48.752;11.348;2023-07-08T12:41:51;8.87;;;5.20;;
70303;SDS011;57712;48.752;11.348;2023-07-08T12:44:22;8.05;;;5.30;;
70303;SDS011;57712;48.752;11.348;2023-07-08T12:46:52;7.70;;;5.03;;
70303;SDS011;57712;48.752;11.348;2023-07-08T12:49:20;8.18;;;5.10;;
70303;SDS011;57712;48.752;11.348;2023-07-08T12:51:53;8.48;;;5.40;;
70303;SDS011;57712;48.752;11.348;2023-07-08T12:54:20;8.30;;;5.00;;
70303;SDS011;57712;48.752;11.348;2023-07-08T12:56:48;7.53;;;4.80;;
70303;SDS011;57712;48.752;11.348;2023-07-08T12:59:19;8.70;;;5.65;;
70303;SDS011;57712;48.752;11.348;2023-07-08T13:01:48;8.77;;;4.97;;
70303;SDS011;57712;48.752;11.348;2023-07-08T13:04:16;8.50;;;5.40;;
70303;SDS011;57712;48.752;11.348;2023-07-08T13:06:45;8.60;;;5.07;;
70303;SDS011;57712;48.752;11.348;2023-07-08T13:12:06;8.02;;;4.80;;
70303;SDS011;57712;48.752;11.348;2023-07-08T13:14:40;7.85;;;4.68;;
70303;SDS011;57712;48.752;11.348;2023-07-08T13:17:15;8.40;;;5.32;;
70303;SDS011;57712;48.752;11.348;2023-07-08T13:19:43;7.73;;;4.93;;
70303;SDS011;57712;48.752;11.348;2023-07-08T13:22:17;8.95;;;5.20;;
70303;SDS011;57712;48.752;11.348;2023-07-08T13:24:47;7.43;;;5.38;;
70303;SDS011;57712;48.752;11.348;2023-07-08T13:27:20;8.57;;;4.80;;
70303;SDS011;57712;48.752;11.348;2023-07-08T13:29:50;7.85;;;5.25;;
70303;SDS011;57712;48.752;11.348;2023-07-08T13:32:18;8.80;;;5.17;;
70303;SDS011;57712;48.752;11.348;2023-07-08T13:34:48;7.60;;;5.28;;
70303;SDS011;57712;48.752;11.348;2023-07-08T13:37:16;8.73;;;5.40;;
70303;SDS011;57712;48.752;11.348;2023-07-08T13:39:47;9.48;;;4.68;;
70303;SDS011;57712;48.752;11.348;2023-07-08T13:42:13;7.88;;;5.25;;
70303;SDS011;57712;48.752;11.348;2023-07-08T13:44:46;8.70;;;4.47;;
70303;SDS011;57712;48.752;11.348;2023-07-08T13:47:21;8.10;;;5.22;;
70303;SDS011;57712;48.752;11.348;2023-07-08T13:49:56;8.05;;;5.10;;
70303;SDS011;57712;48.752;11.348;2023-07-08T13:52:30;8.57;;;5.00;;
70303;SDS011;57712;48.752;11.348;2023-07-08T13:54:58;8.43;;;5.18;;
70303;SDS011;57712;48.752;11.348;2023-07-08T13:57:33;10.40;;;4.77;;
70303;SDS011;57712;48.752;11.348;2023-07-08T14:00:04;7.13;;;4.95;;
70303;SDS011;57712;48.752;11.348;2023-07-08T14:02:33;9.00;;;5.00;;
70303;SDS011;57712;48.752;11.348;2023-07-08T14:05:01;8.50;;;5.07;;
70303;SDS011;57712;48.752;11.348;2023-07-08T14:07:31;8.00;;;5.72;;
70303;SDS011;57712;48.752;11.348;2023-07-08T14:09:58;8.77;;;5.20;;
70303;SDS011;57712;48.752;11.348;2023-07-08T14:12:26;10.05;;;4.90;;
70303;SDS011;57712;48.752;11.348;2023-07-08T14:14:52;8.43;;;4.88;;
70303;SDS011;57712;48.752;11.348;2023-07-08T14:17:21;8.55;;;5.28;;
70303;SDS011;57712;48.752;11.348;2023-07-08T14:19:50;9.85;;;4.80;;
70303;SDS011;57712;48.752;11.348;2023-07-08T14:22:24;8.63;;;5.43;;
70303;SDS011;57712;48.752;11.348;2023-07-08T14:24:53;7.88;;;4.43;;
70303;SDS011;57712;48.752;11.348;2023-07-08T14:27:20;8.05;;;4.28;;
70303;SDS011;57712;48.752;11.348;2023-07-08T14:29:47;9.75;;;5.30;;
70303;SDS011;57712;48.752;11.348;2023-07-08T14:32:20;7.93;;;5.07;;
70303;SDS011;57712;48.752;11.348;2023-07-08T14:34:57;8.20;;;4.73;;
70303;SDS011;57712;48.752;11.348;2023-07-08T14:37:45;7.82;;;4.88;;
70303;SDS011;57712;48.752;11.348;2023-07-08T14:43:04;9.95;;;5.53;;
70303;SDS011;57712;48.752;11.348;2023-07-08T14:45:41;10.35;;;5.07;;
70303;SDS011;57712;48.752;11.348;2023-07-08T14:48:11;7.87;;;4.50;;
70303;SDS011;57712;48.752;11.348;2023-07-08T14:50:39;8.80;;;5.28;;
70303;SDS011;57712;48.752;11.348;2023-07-08T14:53:06;9.30;;;4.95;;
70303;SDS011;57712;48.752;11.348;2023-07-08T14:55:33;7.55;;;4.80;;
70303;SDS011;57712;48.752;11.348;2023-07-08T14:58:01;8.65;;;5.00;;
70303;SDS011;57712;48.752;11.348;2023-07-08T15:00:29;7.87;;;4.87;;
70303;SDS011;57712;48.752;11.348;2023-07-08T15:02:57;7.60;;;4.43;;
70303;SDS011;57712;48.752;11.348;2023-07-08T15:05:24;9.15;;;5.45;;
70303;SDS011;57712;48.752;11.348;2023-07-08T15:07:54;9.18;;;5.10;;
70303;SDS011;57712;48.752;11.348;2023-07-08T15:10:24;7.68;;;4.70;;
70303;SDS011;57712;48.752;11.348;2023-07-08T15:12:53;8.70;;;4.50;;
70303;SDS011;57712;48.752;11.348;2023-07-08T15:15:24;7.35;;;4.30;;
70303;SDS011;57712;48.752;11.348;2023-07-08T15:17:56;7.90;;;4.80;;
70303;SDS011;57712;48.752;11.348;2023-07-08T15:20:25;7.85;;;5.28;;
70303;SDS011;57712;48.752;11.348;2023-07-08T15:22:52;8.27;;;4.70;;
70303;SDS011;57712;48.752;11.348;2023-07-08T15:25:20;7.80;;;4.70;;
70303;SDS011;57712;48.752;11.348;2023-07-08T15:27:48;8.38;;;4.82;;
70303;SDS011;57712;48.752;11.348;2023-07-08T15:30:27;9.90;;;4.72;;
70303;SDS011;57712;48.752;11.348;2023-07-08T15:32:55;9.05;;;4.88;;
70303;SDS011;57712;48.752;11.348;2023-07-08T15:35:28;8.07;;;4.63;;
70303;SDS011;57712;48.752;11.348;2023-07-08T15:38:00;8.37;;;4.80;;
70303;SDS011;57712;48.752;11.348;2023-07-08T15:40:31;8.52;;;4.80;;
70303;SDS011;57712;48.752;11.348;2023-07-08T15:42:59;8.05;;;5.07;;
70303;SDS011;57712;48.752;11.348;2023-07-08T15:45:28;8.73;;;4.78;;
70303;SDS011;57712;48.752;11.348;2023-07-08T15:47:58;8.07;;;4.57;;
70303;SDS011;57712;48.752;11.348;2023-07-08T15:50:26;8.53;;;5.03;;
70303;SDS011;57712;48.752;11.348;2023-07-08T15:52:54;7.05;;;4.13;;
70303;SDS011;57712;48.752;11.348;2023-07-08T15:55:26;10.15;;;4.82;;
70303;SDS011;57712;48.752;11.348;2023-07-08T15:58:06;10.25;;;4.38;;